sensor_id;sensor_type;location;lat;lon;timestamp;P1;durP1;ratioP1;P2;durP2;ratioP2
6013;SDS011;3035;49.928;8.410;2022-09-21T00:00:33;7.97;;;2.53;;
6013;SDS011;3035;49.928;8.410;2022-09-21T00:03:00;5.93;;;2.30;;
6013;SDS011;3035;49.928;8.410;2022-09-21T00:05:28;3.70;;;2.27;;
6013;SDS011;3035;49.928;8.410;2022-09-21T00:07:59;6.90;;;2.50;;
6013;SDS011;3035;49.928;8.410;2022-09-21T00:10:26;4.53;;;2.07;;
6013;SDS011;3035;49.928;8.410;2022-09-21T00:12:54;8.70;;;1.80;;
6013;SDS011;3035;49.928;8.410;2022-09-21T00:15:22;3.23;;;2.23;;
6013;SDS011;3035;49.928;8.410;2022-09-21T00:17:51;4.30;;;1.97;;
6013;SDS011;3035;49.928;8.410;2022-09-21T00:20:16;10.80;;;2.30;;
6013;SDS011;3035;49.928;8.410;2022-09-21T00:22:44;4.50;;;2.50;;
6013;SDS011;3035;49.928;8.410;2022-09-21T00:25:11;4.60;;;2.10;;
6013;SDS011;3035;49.928;8.410;2022-09-21T00:27:39;9.30;;;2.13;;
6013;SDS011;3035;49.928;8.410;2022-09-21T00:30:08;4.37;;;2.13;;
6013;SDS011;3035;49.928;8.410;2022-09-21T00:32:36;11.30;;;2.43;;
6013;SDS011;3035;49.928;8.410;2022-09-21T00:35:04;5.37;;;2.43;;
6013;SDS011;3035;49.928;8.410;2022-09-21T00:37:31;3.57;;;2.70;;
6013;SDS011;3035;49.928;8.410;2022-09-21T00:39:58;6.27;;;2.80;;
6013;SDS011;3035;49.928;8.410;2022-09-21T00:42:27;4.20;;;3.80;;
6013;SDS011;3035;49.928;8.410;2022-09-21T00:44:54;4.97;;;3.27;;
6013;SDS011;3035;49.928;8.410;2022-09-21T00:47:22;5.30;;;2.83;;
6013;SDS011;3035;49.928;8.410;2022-09-21T00:49:52;6.60;;;3.13;;
6013;SDS011;3035;49.928;8.410;2022-09-21T00:52:21;3.87;;;2.33;;
6013;SDS011;3035;49.928;8.410;2022-09-21T00:54:52;3.60;;;2.47;;
6013;SDS011;3035;49.928;8.410;2022-09-21T00:57:21;2.93;;;2.10;;
6013;SDS011;3035;49.928;8.410;2022-09-21T00:59:49;4.93;;;2.97;;
6013;SDS011;3035;49.928;8.410;2022-09-21T01:02:17;3.03;;;2.23;;
6013;SDS011;3035;49.928;8.410;2022-09-21T01:04:45;5.87;;;2.03;;
6013;SDS011;3035;49.928;8.410;2022-09-21T01:07:15;3.07;;;2.40;;
6013;SDS011;3035;49.928;8.410;2022-09-21T01:09:42;12.27;;;2.43;;
6013;SDS011;3035;49.928;8.410;2022-09-21T01:12:16;4.30;;;2.90;;
6013;SDS011;3035;49.928;8.410;2022-09-21T01:14:49;5.13;;;2.17;;
6013;SDS011;3035;49.928;8.410;2022-09-21T01:17:18;8.77;;;2.50;;
6013;SDS011;3035;49.928;8.410;2022-09-21T01:19:49;2.30;;;2.10;;
6013;SDS011;3035;49.928;8.410;2022-09-21T01:22:14;2.30;;;1.80;;
6013;SDS011;3035;49.928;8.410;2022-09-21T01:24:50;17.03;;;2.43;;
6013;SDS011;3035;49.928;8.410;2022-09-21T01:27:22;3.53;;;2.47;;
6013;SDS011;3035;49.928;8.410;2022-09-21T01:30:02;9.57;;;2.53;;
6013;SDS011;3035;49.928;8.410;2022-09-21T01:32:31;2.90;;;2.70;;
6013;SDS011;3035;49.928;8.410;2022-09-21T01:35:05;10.20;;;2.30;;
6013;SDS011;3035;49.928;8.410;2022-09-21T01:37:40;6.80;;;2.50;;
6013;SDS011;3035;49.928;8.410;2022-09-21T01:40:10;5.63;;;2.20;;
6013;SDS011;3035;49.928;8.410;2022-09-21T01:42:46;3.73;;;2.30;;
6013;SDS011;3035;49.928;8.410;2022-09-21T01:45:13;2.83;;;1.90;;
6013;SDS011;3035;49.928;8.410;2022-09-21T01:47:40;6.00;;;2.80;;
6013;SDS011;3035;49.928;8.410;2022-09-21T01:50:08;5.67;;;2.20;;
6013;SDS011;3035;49.928;8.410;2022-09-21T01:52:39;7.00;;;2.00;;
6013;SDS011;3035;49.928;8.410;2022-09-21T01:55:08;3.90;;;2.60;;
6013;SDS011;3035;49.928;8.410;2022-09-21T01:57:41;4.40;;;2.30;;
6013;SDS011;3035;49.928;8.410;2022-09-21T02:00:06;2.63;;;2.10;;
6013;SDS011;3035;49.928;8.410;2022-09-21T02:02:40;2.80;;;2.20;;
6013;SDS011;3035;49.928;8.410;2022-09-21T02:05:06;8.50;;;2.80;;
6013;SDS011;3035;49.928;8.410;2022-09-21T02:07:33;9.30;;;2.23;;
6013;SDS011;3035;49.928;8.410;2022-09-21T02:10:02;2.37;;;1.90;;
6013;SDS011;3035;49.928;8.410;2022-09-21T02:12:29;2.60;;;2.10;;
6013;SDS011;3035;49.928;8.410;2022-09-21T02:14:57;2.50;;;2.20;;
6013;SDS011;3035;49.928;8.410;2022-09-21T02:17:31;3.47;;;2.40;;
6013;SDS011;3035;49.928;8.410;2022-09-21T02:20:13;3.50;;;2.13;;
6013;SDS011;3035;49.928;8.410;2022-09-21T02:22:41;6.27;;;2.37;;
6013;SDS011;3035;49.928;8.410;2022-09-21T02:25:08;6.83;;;2.90;;
6013;SDS011;3035;49.928;8.410;2022-09-21T02:27:45;11.40;;;2.70;;
6013;SDS011;3035;49.928;8.410;2022-09-21T02:30:21;2.87;;;2.30;;
6013;SDS011;3035;49.928;8.410;2022-09-21T02:32:53;5.37;;;2.77;;
6013;SDS011;3035;49.928;8.410;2022-09-21T02:35:25;5.73;;;2.67;;
6013;SDS011;3035;49.928;8.410;2022-09-21T02:38:06;7.47;;;3.03;;
6013;SDS011;3035;49.928;8.410;2022-09-21T02:40:34;4.93;;;2.60;;
6013;SDS011;3035;49.928;8.410;2022-09-21T02:43:04;8.83;;;2.80;;
6013;SDS011;3035;49.928;8.410;2022-09-21T02:45:33;5.00;;;2.83;;
6013;SDS011;3035;49.928;8.410;2022-09-21T02:48:00;4.87;;;2.63;;
6013;SDS011;3035;49.928;8.410;2022-09-21T02:50:43;2.30;;;2.10;;
6013;SDS011;3035;49.928;8.410;2022-09-21T02:53:02;7.93;;;2.97;;
6013;SDS011;3035;49.928;8.410;2022-09-21T02:55:28;8.50;;;2.90;;
6013;SDS011;3035;49.928;8.410;2022-09-21T02:57:56;8.73;;;2.33;;
6013;SDS011;3035;49.928;8.410;2022-09-21T03:00:23;7.70;;;2.40;;
6013;SDS011;3035;49.928;8.410;2022-09-21T03:02:51;3.17;;;2.87;;
6013;SDS011;3035;49.928;8.410;2022-09-21T03:05:18;2.33;;;2.20;;
6013;SDS011;3035;49.928;8.410;2022-09-21T03:07:46;4.80;;;2.27;;
6013;SDS011;3035;49.928;8.410;2022-09-21T03:10:13;5.73;;;2.70;;
6013;SDS011;3035;49.928;8.410;2022-09-21T03:12:41;9.47;;;3.00;;
6013;SDS011;3035;49.928;8.410;2022-09-21T03:15:09;3.83;;;2.40;;
6013;SDS011;3035;49.928;8.410;2022-09-21T03:17:36;12.20;;;3.10;;
6013;SDS011;3035;49.928;8.410;2022-09-21T03:20:04;9.80;;;3.47;;
6013;SDS011;3035;49.928;8.410;2022-09-21T03:22:32;3.60;;;2.97;;
6013;SDS011;3035;49.928;8.410;2022-09-21T03:24:59;9.33;;;2.77;;
6013;SDS011;3035;49.928;8.410;2022-09-21T03:27:27;5.70;;;2.90;;
6013;SDS011;3035;49.928;8.410;2022-09-21T03:29:55;4.80;;;2.47;;
6013;SDS011;3035;49.928;8.410;2022-09-21T03:32:23;8.40;;;2.50;;
6013;SDS011;3035;49.928;8.410;2022-09-21T03:34:50;2.40;;;2.20;;
6013;SDS011;3035;49.928;8.410;2022-09-21T03:37:18;3.90;;;2.33;;
6013;SDS011;3035;49.928;8.410;2022-09-21T03:39:46;5.80;;;2.57;;
6013;SDS011;3035;49.928;8.410;2022-09-21T03:42:14;4.83;;;2.53;;
6013;SDS011;3035;49.928;8.410;2022-09-21T03:44:42;17.30;;;2.40;;
6013;SDS011;3035;49.928;8.410;2022-09-21T03:47:09;2.70;;;2.50;;
6013;SDS011;3035;49.928;8.410;2022-09-21T03:49:37;2.57;;;2.37;;
6013;SDS011;3035;49.928;8.410;2022-09-21T03:52:04;5.70;;;3.00;;
6013;SDS011;3035;49.928;8.410;2022-09-21T03:54:32;3.93;;;3.03;;
6013;SDS011;3035;49.928;8.410;2022-09-21T03:57:00;6.43;;;2.93;;
6013;SDS011;3035;49.928;8.410;2022-09-21T03:59:27;6.43;;;2.67;;
6013;SDS011;3035;49.928;8.410;2022-09-21T04:01:55;3.57;;;3.00;;
6013;SDS011;3035;49.928;8.410;2022-09-21T04:04:22;8.83;;;2.57;;
6013;SDS011;3035;49.928;8.410;2022-09-21T04:06:49;6.73;;;2.67;;
6013;SDS011;3035;49.928;8.410;2022-09-21T04:09:17;8.90;;;2.83;;
6013;SDS011;3035;49.928;8.410;2022-09-21T04:11:44;4.63;;;2.67;;
6013;SDS011;3035;49.928;8.410;2022-09-21T04:14:12;2.87;;;2.50;;
6013;SDS011;3035;49.928;8.410;2022-09-21T04:16:39;5.50;;;2.90;;
6013;SDS011;3035;49.928;8.410;2022-09-21T04:19:07;4.80;;;2.87;;
6013;SDS011;3035;49.928;8.410;2022-09-21T04:21:34;6.00;;;3.07;;
6013;SDS011;3035;49.928;8.410;2022-09-21T04:24:02;8.20;;;2.90;;
6013;SDS011;3035;49.928;8.410;2022-09-21T04:26:31;6.80;;;3.77;;
6013;SDS011;3035;49.928;8.410;2022-09-21T04:28:58;3.63;;;2.80;;
6013;SDS011;3035;49.928;8.410;2022-09-21T04:31:26;2.80;;;2.50;;
6013;SDS011;3035;49.928;8.410;2022-09-21T04:33:53;2.90;;;2.57;;
6013;SDS011;3035;49.928;8.410;2022-09-21T04:36:22;5.13;;;3.33;;
6013;SDS011;3035;49.928;8.410;2022-09-21T04:38:50;8.10;;;3.20;;
6013;SDS011;3035;49.928;8.410;2022-09-21T04:41:17;3.00;;;2.80;;
6013;SDS011;3035;49.928;8.410;2022-09-21T04:43:45;23.43;;;3.97;;
6013;SDS011;3035;49.928;8.410;2022-09-21T04:46:13;8.47;;;3.33;;
6013;SDS011;3035;49.928;8.410;2022-09-21T04:48:40;4.03;;;2.83;;
6013;SDS011;3035;49.928;8.410;2022-09-21T04:51:08;3.63;;;2.90;;
6013;SDS011;3035;49.928;8.410;2022-09-21T04:53:36;3.33;;;2.67;;
6013;SDS011;3035;49.928;8.410;2022-09-21T04:56:03;6.27;;;3.17;;
6013;SDS011;3035;49.928;8.410;2022-09-21T04:58:32;5.27;;;3.70;;
6013;SDS011;3035;49.928;8.410;2022-09-21T05:01:00;4.47;;;3.40;;
6013;SDS011;3035;49.928;8.410;2022-09-21T05:03:27;14.50;;;3.30;;
6013;SDS011;3035;49.928;8.410;2022-09-21T05:05:55;3.33;;;3.03;;
6013;SDS011;3035;49.928;8.410;2022-09-21T05:08:22;8.00;;;3.20;;
6013;SDS011;3035;49.928;8.410;2022-09-21T05:11:05;5.60;;;3.13;;
6013;SDS011;3035;49.928;8.410;2022-09-21T05:13:32;3.30;;;3.00;;
6013;SDS011;3035;49.928;8.410;2022-09-21T05:16:00;3.90;;;2.97;;
6013;SDS011;3035;49.928;8.410;2022-09-21T05:18:27;5.50;;;3.37;;
6013;SDS011;3035;49.928;8.410;2022-09-21T05:20:55;4.67;;;3.37;;
6013;SDS011;3035;49.928;8.410;2022-09-21T05:23:22;4.40;;;3.03;;
6013;SDS011;3035;49.928;8.410;2022-09-21T05:25:50;4.17;;;2.93;;
6013;SDS011;3035;49.928;8.410;2022-09-21T05:28:18;5.63;;;2.73;;
6013;SDS011;3035;49.928;8.410;2022-09-21T05:30:48;4.87;;;2.87;;
6013;SDS011;3035;49.928;8.410;2022-09-21T05:33:15;6.20;;;3.00;;
6013;SDS011;3035;49.928;8.410;2022-09-21T05:38:30;5.20;;;3.60;;
6013;SDS011;3035;49.928;8.410;2022-09-21T05:40:58;5.03;;;3.27;;
6013;SDS011;3035;49.928;8.410;2022-09-21T05:43:27;3.87;;;2.83;;
6013;SDS011;3035;49.928;8.410;2022-09-21T05:45:57;3.70;;;2.90;;
6013;SDS011;3035;49.928;8.410;2022-09-21T05:48:24;3.50;;;2.70;;
6013;SDS011;3035;49.928;8.410;2022-09-21T05:50:55;3.27;;;2.97;;
6013;SDS011;3035;49.928;8.410;2022-09-21T05:53:23;3.00;;;2.80;;
6013;SDS011;3035;49.928;8.410;2022-09-21T05:55:54;5.30;;;3.67;;
6013;SDS011;3035;49.928;8.410;2022-09-21T05:58:25;2.80;;;2.57;;
6013;SDS011;3035;49.928;8.410;2022-09-21T06:03:41;6.17;;;3.50;;
6013;SDS011;3035;49.928;8.410;2022-09-21T06:06:09;4.03;;;2.90;;
6013;SDS011;3035;49.928;8.410;2022-09-21T06:08:36;8.13;;;3.70;;
6013;SDS011;3035;49.928;8.410;2022-09-21T06:11:04;7.93;;;3.30;;
6013;SDS011;3035;49.928;8.410;2022-09-21T06:13:31;4.80;;;3.13;;
6013;SDS011;3035;49.928;8.410;2022-09-21T06:16:01;9.03;;;3.80;;
6013;SDS011;3035;49.928;8.410;2022-09-21T06:18:29;5.20;;;3.40;;
6013;SDS011;3035;49.928;8.410;2022-09-21T06:20:56;6.87;;;4.37;;
6013;SDS011;3035;49.928;8.410;2022-09-21T06:23:23;5.40;;;4.30;;
6013;SDS011;3035;49.928;8.410;2022-09-21T06:25:52;5.83;;;4.10;;
6013;SDS011;3035;49.928;8.410;2022-09-21T06:28:20;5.40;;;4.07;;
6013;SDS011;3035;49.928;8.410;2022-09-21T06:30:50;5.27;;;4.10;;
6013;SDS011;3035;49.928;8.410;2022-09-21T06:33:17;7.17;;;4.80;;
6013;SDS011;3035;49.928;8.410;2022-09-21T06:35:50;8.50;;;3.73;;
6013;SDS011;3035;49.928;8.410;2022-09-21T06:38:12;6.03;;;4.20;;
6013;SDS011;3035;49.928;8.410;2022-09-21T06:40:40;5.03;;;4.10;;
6013;SDS011;3035;49.928;8.410;2022-09-21T06:43:08;7.47;;;4.33;;
6013;SDS011;3035;49.928;8.410;2022-09-21T06:45:35;5.63;;;4.47;;
6013;SDS011;3035;49.928;8.410;2022-09-21T06:48:04;8.00;;;4.77;;
6013;SDS011;3035;49.928;8.410;2022-09-21T06:50:31;11.60;;;5.10;;
6013;SDS011;3035;49.928;8.410;2022-09-21T06:52:59;5.90;;;4.80;;
6013;SDS011;3035;49.928;8.410;2022-09-21T06:55:26;6.97;;;4.20;;
6013;SDS011;3035;49.928;8.410;2022-09-21T06:57:58;7.63;;;5.07;;
6013;SDS011;3035;49.928;8.410;2022-09-21T07:00:25;9.40;;;5.10;;
6013;SDS011;3035;49.928;8.410;2022-09-21T07:02:53;7.87;;;5.20;;
6013;SDS011;3035;49.928;8.410;2022-09-21T07:05:21;8.17;;;6.43;;
6013;SDS011;3035;49.928;8.410;2022-09-21T07:07:49;8.23;;;5.60;;
6013;SDS011;3035;49.928;8.410;2022-09-21T07:10:17;7.73;;;5.73;;
6013;SDS011;3035;49.928;8.410;2022-09-21T07:12:44;9.40;;;6.40;;
6013;SDS011;3035;49.928;8.410;2022-09-21T07:15:11;8.00;;;5.73;;
6013;SDS011;3035;49.928;8.410;2022-09-21T07:17:41;9.30;;;5.63;;
6013;SDS011;3035;49.928;8.410;2022-09-21T07:20:08;9.20;;;6.10;;
6013;SDS011;3035;49.928;8.410;2022-09-21T07:22:35;19.03;;;6.47;;
6013;SDS011;3035;49.928;8.410;2022-09-21T07:25:04;10.50;;;6.27;;
6013;SDS011;3035;49.928;8.410;2022-09-21T07:27:32;13.10;;;6.40;;
6013;SDS011;3035;49.928;8.410;2022-09-21T07:30:00;25.70;;;6.33;;
6013;SDS011;3035;49.928;8.410;2022-09-21T07:32:29;9.13;;;7.23;;
6013;SDS011;3035;49.928;8.410;2022-09-21T07:34:57;7.70;;;5.93;;
6013;SDS011;3035;49.928;8.410;2022-09-21T07:37:25;9.07;;;6.17;;
6013;SDS011;3035;49.928;8.410;2022-09-21T07:39:53;16.47;;;6.70;;
6013;SDS011;3035;49.928;8.410;2022-09-21T07:42:21;11.90;;;6.03;;
6013;SDS011;3035;49.928;8.410;2022-09-21T07:44:49;25.87;;;6.77;;
6013;SDS011;3035;49.928;8.410;2022-09-21T07:47:17;10.17;;;7.23;;
6013;SDS011;3035;49.928;8.410;2022-09-21T07:49:45;17.33;;;7.80;;
6013;SDS011;3035;49.928;8.410;2022-09-21T07:52:14;13.93;;;8.27;;
6013;SDS011;3035;49.928;8.410;2022-09-21T07:54:42;11.90;;;6.87;;
6013;SDS011;3035;49.928;8.410;2022-09-21T07:57:10;17.13;;;6.60;;
6013;SDS011;3035;49.928;8.410;2022-09-21T07:59:44;8.20;;;6.33;;
6013;SDS011;3035;49.928;8.410;2022-09-21T08:02:12;9.80;;;6.63;;
6013;SDS011;3035;49.928;8.410;2022-09-21T08:04:39;8.80;;;6.40;;
6013;SDS011;3035;49.928;8.410;2022-09-21T08:07:07;12.13;;;6.80;;
6013;SDS011;3035;49.928;8.410;2022-09-21T08:09:34;7.30;;;5.73;;
6013;SDS011;3035;49.928;8.410;2022-09-21T08:12:02;9.17;;;6.10;;
6013;SDS011;3035;49.928;8.410;2022-09-21T08:14:30;7.93;;;5.90;;
6013;SDS011;3035;49.928;8.410;2022-09-21T08:16:57;12.53;;;6.17;;
6013;SDS011;3035;49.928;8.410;2022-09-21T08:19:26;10.17;;;5.70;;
6013;SDS011;3035;49.928;8.410;2022-09-21T08:21:53;9.33;;;6.10;;
6013;SDS011;3035;49.928;8.410;2022-09-21T08:24:21;13.73;;;5.40;;
6013;SDS011;3035;49.928;8.410;2022-09-21T08:26:49;8.13;;;5.33;;
6013;SDS011;3035;49.928;8.410;2022-09-21T08:29:18;5.50;;;4.27;;
6013;SDS011;3035;49.928;8.410;2022-09-21T08:31:46;9.37;;;4.27;;
6013;SDS011;3035;49.928;8.410;2022-09-21T08:34:13;5.60;;;3.93;;
6013;SDS011;3035;49.928;8.410;2022-09-21T08:36:41;5.63;;;3.67;;
6013;SDS011;3035;49.928;8.410;2022-09-21T08:39:09;10.53;;;3.83;;
6013;SDS011;3035;49.928;8.410;2022-09-21T08:44:47;5.47;;;2.97;;
6013;SDS011;3035;49.928;8.410;2022-09-21T08:47:14;10.37;;;3.67;;
6013;SDS011;3035;49.928;8.410;2022-09-21T08:49:43;12.20;;;3.63;;
6013;SDS011;3035;49.928;8.410;2022-09-21T08:52:11;4.07;;;2.80;;
6013;SDS011;3035;49.928;8.410;2022-09-21T08:57:13;5.47;;;2.73;;
6013;SDS011;3035;49.928;8.410;2022-09-21T08:59:43;12.13;;;2.90;;
6013;SDS011;3035;49.928;8.410;2022-09-21T09:02:20;10.23;;;2.80;;
6013;SDS011;3035;49.928;8.410;2022-09-21T09:04:49;7.53;;;2.43;;
6013;SDS011;3035;49.928;8.410;2022-09-21T09:07:43;4.80;;;2.57;;
6013;SDS011;3035;49.928;8.410;2022-09-21T09:10:16;4.50;;;1.90;;
6013;SDS011;3035;49.928;8.410;2022-09-21T09:12:47;7.23;;;1.97;;
6013;SDS011;3035;49.928;8.410;2022-09-21T09:15:16;2.70;;;2.10;;
6013;SDS011;3035;49.928;8.410;2022-09-21T09:18:01;6.50;;;2.07;;
6013;SDS011;3035;49.928;8.410;2022-09-21T09:20:30;19.97;;;2.47;;
6013;SDS011;3035;49.928;8.410;2022-09-21T09:23:02;9.40;;;1.80;;
6013;SDS011;3035;49.928;8.410;2022-09-21T09:25:30;1.40;;;1.20;;
6013;SDS011;3035;49.928;8.410;2022-09-21T09:27:56;2.70;;;1.70;;
6013;SDS011;3035;49.928;8.410;2022-09-21T09:30:24;3.63;;;1.73;;
6013;SDS011;3035;49.928;8.410;2022-09-21T09:32:53;7.83;;;2.37;;
6013;SDS011;3035;49.928;8.410;2022-09-21T09:35:28;4.30;;;1.50;;
6013;SDS011;3035;49.928;8.410;2022-09-21T09:41:00;3.00;;;1.50;;
6013;SDS011;3035;49.928;8.410;2022-09-21T09:43:33;5.07;;;1.80;;
6013;SDS011;3035;49.928;8.410;2022-09-21T09:46:00;3.17;;;1.47;;
6013;SDS011;3035;49.928;8.410;2022-09-21T09:48:30;3.03;;;1.33;;
6013;SDS011;3035;49.928;8.410;2022-09-21T09:50:56;5.70;;;1.20;;
6013;SDS011;3035;49.928;8.410;2022-09-21T09:53:25;1.77;;;1.40;;
6013;SDS011;3035;49.928;8.410;2022-09-21T09:55:53;4.30;;;1.57;;
6013;SDS011;3035;49.928;8.410;2022-09-21T09:58:32;2.60;;;1.10;;
6013;SDS011;3035;49.928;8.410;2022-09-21T10:00:59;2.67;;;1.20;;
6013;SDS011;3035;49.928;8.410;2022-09-21T10:03:27;3.33;;;1.37;;
6013;SDS011;3035;49.928;8.410;2022-09-21T10:05:54;3.30;;;1.70;;
6013;SDS011;3035;49.928;8.410;2022-09-21T10:08:29;2.03;;;1.07;;
6013;SDS011;3035;49.928;8.410;2022-09-21T10:11:12;5.33;;;1.00;;
6013;SDS011;3035;49.928;8.410;2022-09-21T10:13:40;1.77;;;1.03;;
6013;SDS011;3035;49.928;8.410;2022-09-21T10:16:13;3.13;;;1.20;;
6013;SDS011;3035;49.928;8.410;2022-09-21T10:18:45;4.63;;;1.00;;
6013;SDS011;3035;49.928;8.410;2022-09-21T10:21:17;1.80;;;1.60;;
6013;SDS011;3035;49.928;8.410;2022-09-21T10:23:45;4.10;;;1.50;;
6013;SDS011;3035;49.928;8.410;2022-09-21T10:26:14;1.27;;;1.17;;
6013;SDS011;3035;49.928;8.410;2022-09-21T10:31:21;4.77;;;1.30;;
6013;SDS011;3035;49.928;8.410;2022-09-21T10:33:49;5.63;;;1.00;;
6013;SDS011;3035;49.928;8.410;2022-09-21T10:36:27;4.03;;;1.00;;
6013;SDS011;3035;49.928;8.410;2022-09-21T10:38:56;1.70;;;0.90;;
6013;SDS011;3035;49.928;8.410;2022-09-21T10:41:23;1.10;;;1.00;;
6013;SDS011;3035;49.928;8.410;2022-09-21T10:43:51;5.20;;;1.30;;
6013;SDS011;3035;49.928;8.410;2022-09-21T10:46:30;1.20;;;1.10;;
6013;SDS011;3035;49.928;8.410;2022-09-21T10:48:47;4.90;;;1.50;;
6013;SDS011;3035;49.928;8.410;2022-09-21T10:51:20;1.03;;;0.80;;
6013;SDS011;3035;49.928;8.410;2022-09-21T10:53:46;3.07;;;0.80;;
6013;SDS011;3035;49.928;8.410;2022-09-21T10:56:15;1.80;;;1.30;;
6013;SDS011;3035;49.928;8.410;2022-09-21T11:01:22;2.30;;;1.07;;
6013;SDS011;3035;49.928;8.410;2022-09-21T11:03:52;1.63;;;1.03;;
6013;SDS011;3035;49.928;8.410;2022-09-21T11:06:21;4.83;;;1.30;;
6013;SDS011;3035;49.928;8.410;2022-09-21T11:08:51;1.23;;;1.13;;
6013;SDS011;3035;49.928;8.410;2022-09-21T11:11:26;1.43;;;0.93;;
6013;SDS011;3035;49.928;8.410;2022-09-21T11:13:57;12.90;;;1.37;;
6013;SDS011;3035;49.928;8.410;2022-09-21T11:16:31;1.67;;;1.10;;
6013;SDS011;3035;49.928;8.410;2022-09-21T11:19:01;2.10;;;0.90;;
6013;SDS011;3035;49.928;8.410;2022-09-21T11:21:31;1.50;;;0.90;;
6013;SDS011;3035;49.928;8.410;2022-09-21T11:29:28;2.00;;;1.00;;
6013;SDS011;3035;49.928;8.410;2022-09-21T11:31:59;1.00;;;0.90;;
6013;SDS011;3035;49.928;8.410;2022-09-21T11:34:32;2.27;;;1.10;;
6013;SDS011;3035;49.928;8.410;2022-09-21T11:37:03;1.73;;;0.90;;
6013;SDS011;3035;49.928;8.410;2022-09-21T11:39:38;3.47;;;1.00;;
6013;SDS011;3035;49.928;8.410;2022-09-21T11:42:19;2.30;;;0.90;;
6013;SDS011;3035;49.928;8.410;2022-09-21T11:44:57;5.63;;;1.03;;
6013;SDS011;3035;49.928;8.410;2022-09-21T11:47:32;3.70;;;1.00;;
6013;SDS011;3035;49.928;8.410;2022-09-21T11:50:08;2.57;;;1.20;;
6013;SDS011;3035;49.928;8.410;2022-09-21T11:52:40;3.70;;;1.23;;
6013;SDS011;3035;49.928;8.410;2022-09-21T11:55:15;2.60;;;0.90;;
6013;SDS011;3035;49.928;8.410;2022-09-21T11:57:48;1.10;;;0.80;;
6013;SDS011;3035;49.928;8.410;2022-09-21T12:00:16;1.47;;;0.90;;
6013;SDS011;3035;49.928;8.410;2022-09-21T12:05:40;2.37;;;0.80;;
6013;SDS011;3035;49.928;8.410;2022-09-21T12:08:23;2.50;;;0.80;;
6013;SDS011;3035;49.928;8.410;2022-09-21T12:11:11;1.70;;;1.10;;
6013;SDS011;3035;49.928;8.410;2022-09-21T12:13:58;5.73;;;0.90;;
6013;SDS011;3035;49.928;8.410;2022-09-21T12:16:31;1.50;;;1.17;;
6013;SDS011;3035;49.928;8.410;2022-09-21T12:19:00;1.27;;;0.90;;
6013;SDS011;3035;49.928;8.410;2022-09-21T12:21:33;2.70;;;0.80;;
6013;SDS011;3035;49.928;8.410;2022-09-21T12:24:02;1.10;;;0.80;;
6013;SDS011;3035;49.928;8.410;2022-09-21T12:26:33;2.57;;;1.13;;
6013;SDS011;3035;49.928;8.410;2022-09-21T12:29:06;2.97;;;0.93;;
6013;SDS011;3035;49.928;8.410;2022-09-21T12:31:37;2.27;;;0.83;;
6013;SDS011;3035;49.928;8.410;2022-09-21T12:34:11;1.43;;;0.90;;
6013;SDS011;3035;49.928;8.410;2022-09-21T12:36:39;37.80;;;1.73;;
6013;SDS011;3035;49.928;8.410;2022-09-21T12:39:09;1.30;;;0.80;;
6013;SDS011;3035;49.928;8.410;2022-09-21T12:44:26;3.47;;;1.07;;
6013;SDS011;3035;49.928;8.410;2022-09-21T12:46:59;1.43;;;1.00;;
6013;SDS011;3035;49.928;8.410;2022-09-21T12:49:27;1.10;;;0.80;;
6013;SDS011;3035;49.928;8.410;2022-09-21T12:51:55;1.73;;;0.90;;
6013;SDS011;3035;49.928;8.410;2022-09-21T12:54:28;3.93;;;1.23;;
6013;SDS011;3035;49.928;8.410;2022-09-21T12:57:02;3.33;;;1.17;;
6013;SDS011;3035;49.928;8.410;2022-09-21T12:59:41;1.83;;;1.00;;
6013;SDS011;3035;49.928;8.410;2022-09-21T13:02:21;1.10;;;0.80;;
6013;SDS011;3035;49.928;8.410;2022-09-21T13:04:54;1.63;;;0.80;;
6013;SDS011;3035;49.928;8.410;2022-09-21T13:07:32;3.83;;;1.20;;
6013;SDS011;3035;49.928;8.410;2022-09-21T13:10:20;3.83;;;1.20;;
6013;SDS011;3035;49.928;8.410;2022-09-21T13:12:51;5.13;;;0.90;;
6013;SDS011;3035;49.928;8.410;2022-09-21T13:15:23;2.13;;;1.07;;
6013;SDS011;3035;49.928;8.410;2022-09-21T13:17:56;2.70;;;0.90;;
6013;SDS011;3035;49.928;8.410;2022-09-21T13:20:24;5.27;;;0.90;;
6013;SDS011;3035;49.928;8.410;2022-09-21T13:22:57;4.83;;;0.90;;
6013;SDS011;3035;49.928;8.410;2022-09-21T13:25:24;2.50;;;1.03;;
6013;SDS011;3035;49.928;8.410;2022-09-21T13:27:58;1.10;;;0.90;;
6013;SDS011;3035;49.928;8.410;2022-09-21T13:30:31;2.70;;;1.30;;
6013;SDS011;3035;49.928;8.410;2022-09-21T13:32:56;2.43;;;0.90;;
6013;SDS011;3035;49.928;8.410;2022-09-21T13:40:48;2.07;;;0.80;;
6013;SDS011;3035;49.928;8.410;2022-09-21T13:43:14;1.20;;;0.80;;
6013;SDS011;3035;49.928;8.410;2022-09-21T13:45:48;0.90;;;0.70;;
6013;SDS011;3035;49.928;8.410;2022-09-21T13:48:18;1.40;;;0.80;;
6013;SDS011;3035;49.928;8.410;2022-09-21T13:50:45;4.07;;;0.70;;
6013;SDS011;3035;49.928;8.410;2022-09-21T13:53:17;1.90;;;0.80;;
6013;SDS011;3035;49.928;8.410;2022-09-21T13:55:49;1.43;;;0.83;;
6013;SDS011;3035;49.928;8.410;2022-09-21T13:58:21;2.80;;;0.90;;
6013;SDS011;3035;49.928;8.410;2022-09-21T14:00:51;5.37;;;1.07;;
6013;SDS011;3035;49.928;8.410;2022-09-21T14:03:20;2.80;;;1.10;;
6013;SDS011;3035;49.928;8.410;2022-09-21T14:05:47;1.17;;;0.90;;
6013;SDS011;3035;49.928;8.410;2022-09-21T14:08:24;2.70;;;1.10;;
6013;SDS011;3035;49.928;8.410;2022-09-21T14:10:54;1.40;;;1.10;;
6013;SDS011;3035;49.928;8.410;2022-09-21T14:13:35;5.20;;;1.43;;
6013;SDS011;3035;49.928;8.410;2022-09-21T14:18:41;1.93;;;1.00;;
6013;SDS011;3035;49.928;8.410;2022-09-21T14:21:10;1.77;;;1.00;;
6013;SDS011;3035;49.928;8.410;2022-09-21T14:23:38;1.87;;;1.10;;
6013;SDS011;3035;49.928;8.410;2022-09-21T14:28:54;1.67;;;0.90;;
6013;SDS011;3035;49.928;8.410;2022-09-21T14:31:25;1.67;;;1.00;;
6013;SDS011;3035;49.928;8.410;2022-09-21T14:33:54;3.20;;;1.10;;
6013;SDS011;3035;49.928;8.410;2022-09-21T14:36:23;1.20;;;0.80;;
6013;SDS011;3035;49.928;8.410;2022-09-21T14:38:51;2.90;;;1.07;;
6013;SDS011;3035;49.928;8.410;2022-09-21T14:41:19;2.10;;;1.33;;
6013;SDS011;3035;49.928;8.410;2022-09-21T14:43:48;1.67;;;0.97;;
6013;SDS011;3035;49.928;8.410;2022-09-21T14:46:16;1.70;;;0.80;;
6013;SDS011;3035;49.928;8.410;2022-09-21T14:48:46;2.80;;;1.20;;
6013;SDS011;3035;49.928;8.410;2022-09-21T14:51:21;1.80;;;1.00;;
6013;SDS011;3035;49.928;8.410;2022-09-21T14:53:56;1.63;;;1.07;;
6013;SDS011;3035;49.928;8.410;2022-09-21T14:56:23;3.37;;;1.27;;
6013;SDS011;3035;49.928;8.410;2022-09-21T14:59:02;1.93;;;1.00;;
6013;SDS011;3035;49.928;8.410;2022-09-21T15:01:40;4.17;;;1.07;;
6013;SDS011;3035;49.928;8.410;2022-09-21T15:07:00;1.87;;;1.27;;
6013;SDS011;3035;49.928;8.410;2022-09-21T15:09:41;1.67;;;1.00;;
6013;SDS011;3035;49.928;8.410;2022-09-21T15:12:15;1.53;;;1.07;;
6013;SDS011;3035;49.928;8.410;2022-09-21T15:14:46;1.10;;;0.90;;
6013;SDS011;3035;49.928;8.410;2022-09-21T15:19:50;2.13;;;1.00;;
6013;SDS011;3035;49.928;8.410;2022-09-21T15:22:18;7.37;;;1.10;;
6013;SDS011;3035;49.928;8.410;2022-09-21T15:24:48;1.27;;;1.00;;
6013;SDS011;3035;49.928;8.410;2022-09-21T15:27:15;1.80;;;1.17;;
6013;SDS011;3035;49.928;8.410;2022-09-21T15:29:43;1.80;;;1.10;;
6013;SDS011;3035;49.928;8.410;2022-09-21T15:32:15;5.07;;;1.47;;
6013;SDS011;3035;49.928;8.410;2022-09-21T15:34:39;1.20;;;1.00;;
6013;SDS011;3035;49.928;8.410;2022-09-21T15:37:11;2.87;;;1.10;;
6013;SDS011;3035;49.928;8.410;2022-09-21T15:39:35;2.57;;;1.00;;
6013;SDS011;3035;49.928;8.410;2022-09-21T15:42:13;1.00;;;0.70;;
6013;SDS011;3035;49.928;8.410;2022-09-21T15:44:41;1.27;;;1.00;;
6013;SDS011;3035;49.928;8.410;2022-09-21T15:47:09;2.17;;;0.97;;
6013;SDS011;3035;49.928;8.410;2022-09-21T15:49:39;2.03;;;0.90;;
6013;SDS011;3035;49.928;8.410;2022-09-21T15:52:10;4.60;;;1.20;;
6013;SDS011;3035;49.928;8.410;2022-09-21T15:54:41;1.57;;;1.00;;
6013;SDS011;3035;49.928;8.410;2022-09-21T15:59:50;1.50;;;0.93;;
6013;SDS011;3035;49.928;8.410;2022-09-21T16:02:20;2.90;;;1.20;;
6013;SDS011;3035;49.928;8.410;2022-09-21T16:04:48;1.90;;;1.27;;
6013;SDS011;3035;49.928;8.410;2022-09-21T16:09:52;2.27;;;1.07;;
6013;SDS011;3035;49.928;8.410;2022-09-21T16:12:30;1.40;;;1.00;;
6013;SDS011;3035;49.928;8.410;2022-09-21T16:15:05;1.80;;;1.00;;
6013;SDS011;3035;49.928;8.410;2022-09-21T16:17:35;2.43;;;1.00;;
6013;SDS011;3035;49.928;8.410;2022-09-21T16:20:03;2.13;;;1.10;;
6013;SDS011;3035;49.928;8.410;2022-09-21T16:22:38;2.00;;;1.17;;